Time;durP1;ratioP1;P1;durP2;ratioP2;P2;SDS_P1;SDS_P2;PMS_P1;PMS_P2;Temp;Humidity;BMP_temperature;BMP_pressure;BME280_temperature;BME280_humidity;BME280_pressure;Samples;Min_cycle;Max_cycle;Signal;HPM_P1;HPM_P2
2023/06/29 00:00:20;;;;;;;16.90;11.57;;;;;;;24.86;57.06;101715.31;5033618;28;20041;-44
2023/06/29 00:02:46;;;;;;;20.50;13.10;;;;;;;24.82;57.10;101719.03;5032268;28;20034;-47
2023/06/29 00:05:12;;;;;;;18.40;11.93;;;;;;;24.74;57.29;101720.19;5031191;28;20123;-49
2023/06/29 00:07:37;;;;;;;22.20;12.50;;;;;;;24.62;58.11;101713.44;5030731;28;20034;-45
2023/06/29 00:10:03;;;;;;;21.65;12.77;;;;;;;24.65;57.67;101716.88;5029621;28;20029;-45
2023/06/29 00:12:29;;;;;;;21.45;12.45;;;;;;;24.67;58.14;101717.69;5030902;28;20030;-47
2023/06/29 00:14:54;;;;;;;21.33;12.35;;;;;;;24.64;58.01;101712.44;5031115;28;20038;-47
2023/06/29 00:17:20;;;;;;;16.88;11.35;;;;;;;24.72;57.89;101708.66;5030899;28;20049;-45
2023/06/29 00:19:48;;;;;;;19.58;11.90;;;;;;;24.69;58.09;101711.44;5030583;28;20493;-44
2023/06/29 00:22:15;;;;;;;21.15;12.02;;;;;;;24.69;57.98;101709.66;5031100;28;20515;-46
2023/06/29 00:24:43;;;;;;;17.92;11.75;;;;;;;24.75;58.07;101705.91;5030287;28;20175;-47
2023/06/29 00:27:12;;;;;;;20.50;12.13;;;;;;;24.69;58.46;101701.66;5030535;28;20404;-48
2023/06/29 00:29:42;;;;;;;19.35;12.23;;;;;;;24.65;58.57;101705.31;5030147;28;20059;-45
2023/06/29 00:32:10;;;;;;;19.23;12.48;;;;;;;24.45;59.07;101699.78;5030944;28;20033;-47
2023/06/29 00:34:36;;;;;;;18.25;12.00;;;;;;;24.53;58.99;101706.59;5030078;28;20049;-47
2023/06/29 00:37:02;;;;;;;19.48;12.63;;;;;;;24.53;59.31;101697.72;5029049;28;20376;-46
2023/06/29 00:39:27;;;;;;;20.90;13.07;;;;;;;24.57;59.26;101699.38;5030077;28;20038;-49
2023/06/29 00:41:53;;;;;;;21.83;12.50;;;;;;;24.51;59.32;101703.13;5030636;28;20033;-45
2023/06/29 00:44:19;;;;;;;20.75;12.25;;;;;;;24.48;59.66;101694.31;5030852;28;20041;-48
2023/06/29 00:46:45;;;;;;;19.90;11.93;;;;;;;24.57;59.55;101692.25;5029779;28;20388;-44
2023/06/29 00:49:10;;;;;;;19.20;12.25;;;;;;;24.56;59.82;101694.97;5030400;28;20060;-45
2023/06/29 00:51:36;;;;;;;21.25;12.15;;;;;;;24.62;59.38;101695.66;5029360;28;20071;-46
2023/06/29 00:54:01;;;;;;;18.30;12.32;;;;;;;24.62;59.54;101684.97;5030108;28;20488;-43
2023/06/29 00:56:30;;;;;;;19.13;11.73;;;;;;;24.51;59.90;101684.47;5030258;28;20033;-45
2023/06/29 00:58:55;;;;;;;18.35;11.77;;;;;;;24.55;59.92;101688.75;5029769;28;20033;-44
2023/06/29 01:01:21;;;;;;;17.38;11.52;;;;;;;24.60;59.33;101684.16;5030467;28;20588;-44
2023/06/29 01:03:46;;;;;;;19.52;11.43;;;;;;;24.60;59.62;101681.47;5030004;28;20034;-46
2023/06/29 01:06:16;;;;;;;19.20;11.50;;;;;;;24.62;59.52;101682.31;5030936;28;20079;-45
2023/06/29 01:08:48;;;;;;;21.73;12.52;;;;;;;24.54;59.64;101676.34;5030151;28;20064;-44
2023/06/29 01:11:14;;;;;;;22.95;12.65;;;;;;;24.34;60.40;101667.22;5030717;28;20560;-48
2023/06/29 01:13:43;;;;;;;22.40;12.82;;;;;;;24.34;60.66;101672.53;5029819;28;20506;-47
2023/06/29 01:16:10;;;;;;;21.80;12.90;;;;;;;24.34;60.42;101677.88;5030296;28;20515;-45
2023/06/29 01:18:37;;;;;;;22.33;12.07;;;;;;;24.39;60.81;101671.50;5029296;28;20107;-46
2023/06/29 01:21:02;;;;;;;21.05;11.65;;;;;;;24.51;60.39;101667.59;5030186;28;20084;-44
2023/06/29 01:23:36;;;;;;;18.35;11.93;;;;;;;24.53;60.37;101671.94;5029774;28;20033;-43
2023/06/29 01:26:03;;;;;;;20.00;11.80;;;;;;;24.55;60.16;101670.09;5030113;28;20033;-46
2023/06/29 01:28:31;;;;;;;18.55;11.88;;;;;;;24.55;60.27;101672.75;5029344;28;20384;-46
2023/06/29 01:31:02;;;;;;;20.25;12.00;;;;;;;24.54;60.38;101665.69;5030006;28;20091;-44
2023/06/29 01:33:27;;;;;;;20.95;11.68;;;;;;;24.50;60.44;101658.72;5029600;28;20114;-45
2023/06/29 01:36:00;;;;;;;22.15;12.57;;;;;;;24.55;60.19;101662.09;5030117;28;20438;-46
2023/06/29 01:38:33;;;;;;;19.52;12.45;;;;;;;24.40;60.66;101651.91;5028306;28;20041;-48
2023/06/29 01:41:01;;;;;;;20.00;11.88;;;;;;;24.34;61.22;101652.09;5030439;28;20445;-45
2023/06/29 01:43:28;;;;;;;20.85;12.02;;;;;;;24.43;61.20;101650.94;5029335;28;20448;-47
2023/06/29 01:45:54;;;;;;;19.35;12.05;;;;;;;24.45;61.11;101638.47;5028751;28;20484;-47
2023/06/29 01:48:19;;;;;;;22.02;12.35;;;;;;;24.44;61.54;101636.72;5028383;28;20041;-46
2023/06/29 01:50:45;;;;;;;21.08;11.88;;;;;;;24.31;62.53;101638.88;5028440;28;20064;-45
2023/06/29 01:53:10;;;;;;;18.90;11.73;;;;;;;24.01;63.80;101642.47;5029914;28;20037;-49
2023/06/29 01:55:36;;;;;;;17.70;11.00;;;;;;;23.84;65.29;101640.31;5029576;28;20061;-44
2023/06/29 01:58:01;;;;;;;16.92;10.18;;;;;;;24.05;64.51;101641.44;5029446;28;20025;-44
2023/06/29 02:00:27;;;;;;;17.95;10.30;;;;;;;24.17;63.71;101635.72;5029316;28;20038;-48
2023/06/29 02:02:52;;;;;;;16.83;9.73;;;;;;;24.19;64.10;101634.81;5029789;28;20036;-43
2023/06/29 02:05:19;;;;;;;14.63;10.00;;;;;;;24.02;64.93;101631.78;5030448;28;20037;-43
2023/06/29 02:07:45;;;;;;;17.92;10.07;;;;;;;24.09;64.45;101630.63;5032776;28;20037;-44
2023/06/29 02:10:10;;;;;;;18.10;10.30;;;;;;;24.12;64.41;101629.69;5033999;28;20030;-48
2023/06/29 02:12:35;;;;;;;16.00;10.02;;;;;;;24.18;64.24;101629.50;5033786;28;20072;-48
2023/06/29 02:15:01;;;;;;;15.68;9.73;;;;;;;24.20;64.23;101619.72;5035684;28;20041;-45
2023/06/29 02:17:26;;;;;;;17.45;10.20;;;;;;;24.20;63.98;101620.59;5033853;28;20052;-46
2023/06/29 02:19:52;;;;;;;18.65;10.40;;;;;;;24.23;63.87;101620.47;5033320;28;20030;-45
2023/06/29 02:22:17;;;;;;;17.38;10.10;;;;;;;24.23;63.59;101625.78;5033513;28;20041;-46
2023/06/29 02:24:42;;;;;;;19.05;10.77;;;;;;;24.17;63.68;101617.09;5032437;28;20044;-43
2023/06/29 02:27:08;;;;;;;20.15;10.65;;;;;;;24.20;63.60;101619.72;5032838;28;20033;-49
2023/06/29 02:29:33;;;;;;;14.88;9.52;;;;;;;24.32;63.15;101614.00;5032465;28;20124;-48
2023/06/29 02:31:58;;;;;;;17.42;10.20;;;;;;;24.23;63.69;101603.59;5032984;28;20032;-45
2023/06/29 02:34:24;;;;;;;18.98;10.40;;;;;;;24.20;63.63;101598.38;5032753;28;20029;-44
2023/06/29 02:36:49;;;;;;;17.58;10.80;;;;;;;24.27;63.37;101597.28;5032013;28;20484;-44
2023/06/29 02:39:14;;;;;;;17.48;10.40;;;;;;;24.29;63.32;101600.75;5032921;28;20407;-49
2023/06/29 02:41:40;;;;;;;16.95;10.45;;;;;;;24.15;64.41;101595.81;5032829;28;20037;-47
2023/06/29 02:44:05;;;;;;;16.02;9.82;;;;;;;24.17;63.88;101598.44;5032742;28;20087;-46
2023/06/29 02:46:30;;;;;;;17.42;10.85;;;;;;;24.16;64.07;101599.34;5032535;28;20045;-45
2023/06/29 02:48:56;;;;;;;18.80;11.13;;;;;;;24.04;63.97;101603.28;5032139;28;20037;-43
2023/06/29 02:51:21;;;;;;;19.90;11.55;;;;;;;24.01;64.46;101600.72;5032680;28;20114;-50
2023/06/29 02:53:46;;;;;;;19.33;11.00;;;;;;;24.13;64.16;101604.78;5031637;28;20060;-46
2023/06/29 02:56:12;;;;;;;17.88;10.85;;;;;;;24.11;64.05;101593.31;5032674;28;20180;-45
2023/06/29 02:58:37;;;;;;;17.42;11.07;;;;;;;24.14;64.09;101590.56;5031493;28;20034;-48
2023/06/29 03:01:02;;;;;;;22.45;11.98;;;;;;;24.11;64.03;101590.63;5032467;28;20076;-48
2023/06/29 03:03:28;;;;;;;20.05;10.75;;;;;;;24.18;63.46;101584.19;5031803;28;20026;-49
2023/06/29 03:05:53;;;;;;;19.65;10.95;;;;;;;24.18;63.63;101579.78;5032167;28;20034;-47
2023/06/29 03:08:19;;;;;;;20.73;12.00;;;;;;;24.05;64.09;101577.50;5031752;28;20041;-45
2023/06/29 03:10:44;;;;;;;21.02;12.40;;;;;;;23.91;65.09;101571.75;5032137;28;20072;-49
2023/06/29 03:13:09;;;;;;;21.20;11.75;;;;;;;24.07;64.55;101578.34;5032070;28;20037;-45
2023/06/29 03:15:35;;;;;;;18.95;11.43;;;;;;;24.13;63.88;101572.81;5031960;28;20072;-47
2023/06/29 03:18:00;;;;;;;19.25;11.00;;;;;;;24.21;63.62;101570.84;5031770;28;20488;-45
2023/06/29 03:20:25;;;;;;;21.33;12.00;;;;;;;24.15;64.01;101568.31;5031836;28;20084;-52
2023/06/29 03:22:51;;;;;;;21.90;12.70;;;;;;;24.15;63.68;101565.66;5031853;28;20579;-46
2023/06/29 03:25:16;;;;;;;22.65;12.80;;;;;;;23.98;64.14;101563.50;5032129;28;20045;-45
2023/06/29 03:27:42;;;;;;;20.30;12.73;;;;;;;24.10;64.00;101556.91;5031214;28;20079;-46
2023/06/29 03:30:07;;;;;;;20.85;11.73;;;;;;;24.16;64.01;101562.94;5031746;28;20530;-48
2023/06/29 03:32:33;;;;;;;22.88;13.20;;;;;;;23.98;64.63;101562.63;5032158;28;20042;-46
2023/06/29 03:34:58;;;;;;;19.77;11.73;;;;;;;24.07;64.28;101555.25;5032357;28;20405;-45
2023/06/29 03:37:23;;;;;;;22.63;12.95;;;;;;;24.09;63.93;101556.03;5031644;28;20045;-47
2023/06/29 03:39:49;;;;;;;22.58;12.90;;;;;;;23.99;63.96;101557.25;5031658;28;20458;-46
2023/06/29 03:42:14;;;;;;;22.27;11.80;;;;;;;24.17;63.32;101561.13;5031932;28;20128;-47
2023/06/29 03:44:39;;;;;;;20.05;12.00;;;;;;;24.09;63.67;101557.88;5031401;28;20094;-51
2023/06/29 03:47:06;;;;;;;20.55;12.15;;;;;;;24.03;63.44;101553.56;5031491;28;20029;-43
2023/06/29 03:49:32;;;;;;;19.38;11.55;;;;;;;24.21;62.57;101555.69;5031697;28;20042;-45
2023/06/29 03:51:57;;;;;;;22.27;12.68;;;;;;;24.04;62.27;101551.78;5032200;28;20037;-47
2023/06/29 03:54:22;;;;;;;21.13;12.98;;;;;;;24.09;62.51;101558.72;5032398;28;20049;-46
2023/06/29 03:56:48;;;;;;;20.98;12.82;;;;;;;24.10;62.67;101556.91;5031073;28;20052;-43
2023/06/29 03:59:13;;;;;;;20.55;12.65;;;;;;;24.19;62.16;101560.22;5031775;28;20474;-45
2023/06/29 04:01:38;;;;;;;20.25;12.05;;;;;;;24.22;62.06;101552.09;5030164;28;20041;-50
2023/06/29 04:04:04;;;;;;;21.23;12.60;;;;;;;24.06;62.32;101555.28;5031276;28;20026;-47
2023/06/29 04:06:29;;;;;;;21.80;12.52;;;;;;;24.00;62.30;101558.13;5031135;28;20561;-45
2023/06/29 04:08:54;;;;;;;20.80;12.48;;;;;;;;;;5030554;28;20029;-45
2023/06/29 04:11:20;;;;;;;19.97;11.83;;;;;;;23.98;62.08;101560.84;5031235;28;20103;-47
2023/06/29 04:13:45;;;;;;;19.00;11.50;;;;;;;24.08;61.86;101548.13;5030806;28;20284;-47
2023/06/29 04:16:10;;;;;;;19.73;12.07;;;;;;;23.93;62.11;101551.25;5031288;28;20186;-47
2023/06/29 04:18:35;;;;;;;20.33;11.93;;;;;;;23.89;62.28;101555.81;5030783;28;20041;-46
2023/06/29 04:21:01;;;;;;;18.55;11.82;;;;;;;24.00;61.33;101545.69;5031123;28;20033;-45
2023/06/29 04:23:26;;;;;;;20.10;12.38;;;;;;;23.85;61.36;101555.03;5030411;28;20409;-43
2023/06/29 04:25:52;;;;;;;19.77;12.10;;;;;;;23.69;61.62;101548.44;5031109;28;20044;-47
2023/06/29 04:28:17;;;;;;;20.35;12.35;;;;;;;23.79;61.40;101549.00;5030276;28;20067;-47
2023/06/29 04:30:43;;;;;;;16.27;11.00;;;;;;;23.65;61.44;101545.91;5030563;28;20099;-51
2023/06/29 04:33:10;;;;;;;19.20;11.80;;;;;;;23.77;61.43;101542.88;5031533;28;20178;-49
2023/06/29 04:35:45;;;;;;;18.25;11.82;;;;;;;23.80;60.96;101540.09;5031311;28;20096;-48
2023/06/29 04:38:11;;;;;;;17.80;11.95;;;;;;;23.89;60.80;101547.81;5031489;28;20029;-52
2023/06/29 04:40:39;;;;;;;16.88;11.13;;;;;;;23.99;60.26;101543.06;5031342;28;20527;-47
2023/06/29 04:43:08;;;;;;;17.13;11.25;;;;;;;24.03;59.72;101537.59;5031684;28;20033;-43
2023/06/29 04:45:34;;;;;;;17.92;11.68;;;;;;;24.18;59.14;101531.81;5031142;28;20044;-46
2023/06/29 04:48:00;;;;;;;18.17;11.50;;;;;;;24.20;59.18;101531.78;5030089;28;20041;-45
2023/06/29 04:50:31;;;;;;;18.48;11.65;;;;;;;24.09;59.70;101532.06;5029841;28;20040;-45
2023/06/29 04:53:12;;;;;;;20.80;11.65;;;;;;;24.01;59.58;101538.56;5029420;28;20567;-47
2023/06/29 04:55:38;;;;;;;20.05;11.95;;;;;;;24.20;58.86;101542.44;5029136;28;20041;-48
2023/06/29 04:58:03;;;;;;;18.88;12.15;;;;;;;24.19;59.30;101535.34;5029827;28;20031;-47
2023/06/29 05:00:30;;;;;;;17.48;12.05;;;;;;;24.33;59.19;101537.59;5029843;28;20041;-50
2023/06/29 05:02:55;;;;;;;24.75;12.80;;;;;;;24.33;59.47;101543.78;5030143;28;20030;-48
2023/06/29 05:05:20;;;;;;;18.77;12.70;;;;;;;24.27;59.43;101548.44;5030214;28;20040;-43
2023/06/29 05:07:46;;;;;;;19.23;12.68;;;;;;;24.33;58.87;101538.44;5029457;28;20104;-45
2023/06/29 05:10:11;;;;;;;21.23;13.20;;;;;;;24.20;59.15;101531.78;5030030;28;20132;-50
2023/06/29 05:12:36;;;;;;;20.90;13.52;;;;;;;24.39;58.69;101527.59;5029645;28;20746;-45
2023/06/29 05:15:02;;;;;;;20.10;13.38;;;;;;;24.25;59.30;101529.84;5030086;28;20455;-48
2023/06/29 05:17:27;;;;;;;21.25;13.05;;;;;;;24.46;58.49;101529.09;5029143;28;20450;-43
2023/06/29 05:19:53;;;;;;;21.83;14.60;;;;;;;24.02;59.74;101522.56;5029982;28;20060;-43
2023/06/29 05:22:18;;;;;;;24.90;15.55;;;;;;;24.11;59.44;101524.03;5030072;28;20065;-47
2023/06/29 05:24:44;;;;;;;23.40;13.93;;;;;;;24.37;58.67;101532.09;5029200;28;20037;-47
2023/06/29 05:27:10;;;;;;;24.75;14.73;;;;;;;24.40;58.35;101526.63;5029881;28;20506;-47
2023/06/29 05:29:36;;;;;;;24.20;14.45;;;;;;;24.31;58.82;101524.31;5029199;28;20072;-43
2023/06/29 05:32:01;;;;;;;23.05;15.32;;;;;;;24.33;58.91;101521.59;5030016;28;20053;-44
2023/06/29 05:34:27;;;;;;;23.65;14.75;;;;;;;24.50;58.21;101527.22;5029256;28;20048;-42
2023/06/29 05:36:53;;;;;;;25.08;15.63;;;;;;;24.54;57.83;101518.19;5029494;28;20083;-45
2023/06/29 05:39:18;;;;;;;25.08;15.32;;;;;;;24.76;57.69;101515.66;5029688;28;20038;-44
2023/06/29 05:41:43;;;;;;;25.38;16.27;;;;;;;24.67;57.78;101527.50;5028446;28;20037;-44
2023/06/29 05:44:09;;;;;;;31.73;17.17;;;;;;;24.05;59.71;101519.78;5029776;28;20132;-51
2023/06/29 05:46:34;;;;;;;33.92;17.17;;;;;;;24.13;58.89;101520.41;5029345;28;20037;-44
2023/06/29 05:49:00;;;;;;;26.83;16.42;;;;;;;24.44;58.82;101525.63;5029890;28;20400;-44
2023/06/29 05:51:26;;;;;;;27.27;16.58;;;;;;;24.58;58.60;101522.47;5029574;28;20243;-48
2023/06/29 05:53:52;;;;;;;34.95;17.52;;;;;;;24.23;59.12;101521.88;5030261;28;20400;-50
2023/06/29 05:56:17;;;;;;;31.17;18.33;;;;;;;24.27;59.16;101528.84;5030113;28;20069;-46
2023/06/29 05:58:43;;;;;;;30.73;18.23;;;;;;;23.93;60.00;101533.47;5028523;28;20029;-47
2023/06/29 06:01:08;;;;;;;27.95;17.13;;;;;;;24.33;59.33;101524.25;5029985;28;20033;-48
2023/06/29 06:03:35;;;;;;;30.25;17.83;;;;;;;24.50;58.72;101533.44;5029644;28;20048;-49
2023/06/29 06:06:01;;;;;;;30.08;17.67;;;;;;;24.54;58.71;101526.19;5029738;28;20064;-50
2023/06/29 06:08:26;;;;;;;31.50;18.05;;;;;;;24.37;59.39;101525.88;5028688;28;20053;-50
2023/06/29 06:10:51;;;;;;;33.03;18.75;;;;;;;24.34;59.17;101521.50;5029536;28;20117;-47
2023/06/29 06:13:17;;;;;;;30.25;17.73;;;;;;;24.51;59.07;101531.63;5029499;28;20103;-44
2023/06/29 06:15:42;;;;;;;31.73;18.60;;;;;;;24.62;58.36;101530.34;5029260;28;20040;-49
2023/06/29 06:18:07;;;;;;;33.95;17.88;;;;;;;24.78;58.19;101527.13;5028879;28;20037;-48
2023/06/29 06:20:33;;;;;;;34.75;19.02;;;;;;;24.55;58.76;101523.47;5028538;28;20518;-46
2023/06/29 06:22:58;;;;;;;30.33;17.55;;;;;;;24.71;58.32;101530.94;5029011;28;20515;-48
2023/06/29 06:25:23;;;;;;;32.22;19.38;;;;;;;24.57;58.78;101529.63;5029220;28;20547;-45
2023/06/29 06:27:49;;;;;;;35.53;18.77;;;;;;;24.75;58.47;101529.91;5028526;28;20115;-47
2023/06/29 06:30:14;;;;;;;36.13;19.30;;;;;;;24.50;59.04;101536.09;5029299;28;20036;-46
2023/06/29 06:32:41;;;;;;;33.42;19.45;;;;;;;24.74;58.09;101523.72;5028871;28;20496;-48
2023/06/29 06:35:09;;;;;;;34.05;19.75;;;;;;;24.27;59.61;101525.34;5028966;28;20046;-48
2023/06/29 06:37:38;;;;;;;34.78;19.85;;;;;;;24.26;60.22;101523.59;5028339;28;20156;-46
2023/06/29 06:40:07;;;;;;;35.58;19.83;;;;;;;24.29;60.06;101526.13;5029230;28;20038;-48
2023/06/29 06:42:36;;;;;;;34.58;20.60;;;;;;;24.52;59.50;101531.56;5029168;28;20037;-43
2023/06/29 06:45:05;;;;;;;37.50;20.70;;;;;;;24.59;59.30;101532.22;5029562;28;20522;-50
2023/06/29 06:47:34;;;;;;;32.67;20.38;;;;;;;24.57;59.58;101523.44;5028839;28;20411;-43
2023/06/29 06:50:00;;;;;;;35.35;19.92;;;;;;;24.86;58.77;101525.06;5029101;28;20061;-50
2023/06/29 06:52:27;;;;;;;38.88;20.95;;;;;;;24.57;58.85;101529.63;5030387;28;20446;-51
2023/06/29 06:54:52;;;;;;;33.13;19.88;;;;;;;25.03;58.03;101533.38;5032923;28;20045;-48
2023/06/29 06:57:18;;;;;;;35.20;20.52;;;;;;;24.77;58.31;101528.91;5032415;28;20476;-45
2023/06/29 06:59:44;;;;;;;38.08;20.13;;;;;;;25.22;57.55;101523.78;5032022;28;20038;-47
2023/06/29 07:02:09;;;;;;;36.75;20.73;;;;;;;25.24;57.29;101526.41;5032611;28;20033;-46
2023/06/29 07:04:35;;;;;;;38.92;20.38;;;;;;;24.66;59.20;101531.09;5031829;28;20044;-48
2023/06/29 07:07:00;;;;;;;35.78;20.25;;;;;;;25.09;58.15;101513.59;5032106;28;20043;-46
2023/06/29 07:09:25;;;;;;;34.10;19.65;;;;;;;25.29;57.48;101522.63;5032472;28;20040;-47
2023/06/29 07:11:51;;;;;;;32.88;19.55;;;;;;;25.43;57.74;101514.09;5031725;28;20368;-50
2023/06/29 07:14:16;;;;;;;36.67;19.83;;;;;;;25.12;58.04;101518.84;5032253;28;20711;-42
2023/06/29 07:16:42;;;;;;;35.17;19.08;;;;;;;25.17;58.26;101523.06;5031329;28;20547;-44
2023/06/29 07:19:11;;;;;;;33.95;19.05;;;;;;;25.46;56.83;101520.19;5032193;28;20049;-47
2023/06/29 07:21:37;;;;;;;32.90;19.15;;;;;;;25.50;56.87;101520.06;5031759;28;20033;-45
2023/06/29 07:24:02;;;;;;;32.80;18.10;;;;;;;25.80;56.61;101524.22;5032009;28;20889;-48
2023/06/29 07:26:28;;;;;;;30.92;17.73;;;;;;;25.91;55.90;101519.38;5031574;28;20033;-47
2023/06/29 07:28:53;;;;;;;30.30;18.75;;;;;;;25.54;56.74;101517.22;5031852;28;20055;-45
2023/06/29 07:31:24;;;;;;;29.90;17.60;;;;;;;25.86;56.23;101526.66;5032465;28;20044;-46
2023/06/29 07:33:50;;;;;;;29.83;18.00;;;;;;;25.83;56.14;101522.34;5031636;28;20037;-45
2023/06/29 07:36:15;;;;;;;30.63;18.20;;;;;;;26.04;55.71;101509.94;5032546;28;20039;-46
2023/06/29 07:38:42;;;;;;;37.03;19.27;;;;;;;26.00;55.27;101518.09;5030410;28;20049;-46
2023/06/29 07:41:08;;;;;;;27.48;17.98;;;;;;;26.06;56.11;101515.19;5031816;28;20136;-50
2023/06/29 07:43:34;;;;;;;33.28;17.73;;;;;;;26.26;55.42;101509.94;5031790;28;20527;-44
2023/06/29 07:45:59;;;;;;;30.25;18.00;;;;;;;26.33;55.03;101513.22;5031785;28;20036;-47
2023/06/29 07:48:25;;;;;;;27.83;17.70;;;;;;;26.40;55.00;101509.38;5031272;28;20520;-47
2023/06/29 07:50:50;;;;;;;28.70;18.40;;;;;;;26.72;53.74;101506.16;5031103;28;20492;-48
2023/06/29 07:53:16;;;;;;;30.40;17.23;;;;;;;26.90;53.44;101500.03;5031079;28;20033;-46
2023/06/29 07:55:41;;;;;;;26.08;16.73;;;;;;;27.21;53.35;101493.28;5031671;28;20041;-47
2023/06/29 07:58:06;;;;;;;25.02;16.30;;;;;;;27.24;51.80;101493.16;5030918;28;20029;-50
2023/06/29 08:00:32;;;;;;;26.85;15.93;;;;;;;27.24;52.86;101493.16;5031439;28;20048;-48
2023/06/29 08:02:57;;;;;;;25.27;14.88;;;;;;;27.02;54.07;101490.56;5030839;28;20029;-45
2023/06/29 08:05:23;;;;;;;22.58;14.07;;;;;;;27.76;51.71;101491.59;5032158;28;20064;-47
2023/06/29 08:07:49;;;;;;;23.05;15.15;;;;;;;27.64;51.88;101494.88;5031154;28;20029;-47
2023/06/29 08:10:15;;;;;;;22.80;15.35;;;;;;;27.89;50.87;101499.91;5031177;28;20048;-47
2023/06/29 08:12:40;;;;;;;27.98;16.17;;;;;;;27.63;51.37;101506.53;5030896;28;20033;-49
2023/06/29 08:15:06;;;;;;;25.52;15.73;;;;;;;27.00;53.39;101495.16;5031412;28;20034;-46
2023/06/29 08:17:31;;;;;;;24.63;15.70;;;;;;;26.87;54.27;101494.78;5029940;28;20388;-49
2023/06/29 08:19:57;;;;;;;23.75;14.23;;;;;;;27.03;53.58;101503.03;5031117;28;20076;-50
2023/06/29 08:22:22;;;;;;;21.70;13.38;;;;;;;26.84;53.12;101492.25;5031226;28;20069;-45
2023/06/29 08:24:47;;;;;;;21.52;13.02;;;;;;;26.71;54.14;101495.53;5030669;28;20046;-47
2023/06/29 08:27:13;;;;;;;22.70;12.80;;;;;;;26.95;53.97;101495.38;5030501;28;20038;-46
2023/06/29 08:29:39;;;;;;;18.40;11.93;;;;;;;27.09;52.51;101485.81;5030532;28;20042;-47
2023/06/29 08:32:06;;;;;;;17.17;10.93;;;;;;;27.31;52.19;101494.63;5029607;28;20033;-48
2023/06/29 08:34:31;;;;;;;22.05;11.40;;;;;;;27.21;52.23;101486.13;5030204;28;20153;-47
2023/06/29 08:36:56;;;;;;;18.83;11.27;;;;;;;27.04;53.41;101480.69;5030467;28;20116;-49
2023/06/29 08:39:22;;;;;;;20.02;10.77;;;;;;;26.75;53.92;101481.97;5030643;28;20038;-49
2023/06/29 08:41:47;;;;;;;19.50;11.30;;;;;;;26.28;55.36;101496.50;5030106;28;20057;-45
2023/06/29 08:44:13;;;;;;;21.17;11.07;;;;;;;26.32;55.36;101496.31;5030399;28;20549;-47
2023/06/29 08:46:41;;;;;;;17.77;10.90;;;;;;;26.49;54.74;101487.56;5029537;28;20045;-50
2023/06/29 08:49:08;;;;;;;16.88;10.43;;;;;;;26.76;53.97;101486.38;5030519;28;20777;-43
2023/06/29 08:51:37;;;;;;;17.75;10.57;;;;;;;27.14;52.64;101482.00;5029889;28;20049;-47
2023/06/29 08:54:03;;;;;;;19.92;11.70;;;;;;;26.74;53.40;101482.91;5030474;28;20051;-46
2023/06/29 08:56:30;;;;;;;17.33;11.30;;;;;;;26.58;54.59;101493.41;5029766;28;20456;-46
2023/06/29 08:58:56;;;;;;;21.38;11.77;;;;;;;26.85;53.93;101493.97;5029751;28;20029;-44
2023/06/29 09:01:22;;;;;;;19.08;12.25;;;;;;;27.17;52.60;101483.66;5030072;28;20049;-53
2023/06/29 09:03:49;;;;;;;19.98;11.88;;;;;;;27.07;52.98;101482.38;5029623;28;20459;-47
2023/06/29 09:06:15;;;;;;;19.88;11.15;;;;;;;27.55;52.02;101482.78;5030331;28;20044;-48
2023/06/29 09:08:40;;;;;;;20.75;13.32;;;;;;;27.11;52.61;101484.81;5029130;28;20037;-49
2023/06/29 09:11:05;;;;;;;21.55;13.02;;;;;;;27.60;51.35;101495.97;5030118;28;20123;-45
2023/06/29 09:13:33;;;;;;;23.00;14.80;;;;;;;27.50;51.45;101492.81;5029443;28;20175;-46
2023/06/29 09:16:00;;;;;;;22.02;13.98;;;;;;;27.66;50.86;101493.84;5029747;28;20033;-48
2023/06/29 09:18:27;;;;;;;21.92;13.90;;;;;;;27.48;52.04;101489.34;5029183;28;20041;-46
2023/06/29 09:20:56;;;;;;;20.70;13.05;;;;;;;27.48;52.11;101497.38;5030052;28;20025;-47
2023/06/29 09:23:33;;;;;;;19.85;13.13;;;;;;;28.32;50.02;101487.97;5029990;28;20069;-44
2023/06/29 09:25:58;;;;;;;19.45;11.98;;;;;;;28.80;47.26;101492.63;5029776;28;20033;-47
2023/06/29 09:28:25;;;;;;;17.05;11.82;;;;;;;28.55;52.47;101493.88;5030448;28;20044;-46
2023/06/29 09:30:51;;;;;;;16.30;11.70;;;;;;;27.92;52.33;101497.97;5029788;28;20025;-45
2023/06/29 09:33:16;;;;;;;18.15;11.70;;;;;;;27.35;52.32;101483.69;5030435;28;20041;-46
2023/06/29 09:35:51;;;;;;;18.55;11.27;;;;;;;27.31;51.92;101498.16;5029618;28;20034;-46
2023/06/29 09:38:16;;;;;;;17.60;11.27;;;;;;;27.76;51.52;101496.94;5029659;28;20046;-46
2023/06/29 09:40:50;;;;;;;17.92;10.95;;;;;;;28.08;50.95;101495.38;5029636;28;20639;-49
2023/06/29 09:43:20;;;;;;;;;;;;;;;28.39;48.98;101497.44;5030325;28;20175;-49
2023/06/29 09:45:45;;;;;;;15.15;10.05;;;;;;;28.95;48.31;101484.66;5029743;28;19950;-49
2023/06/29 09:48:12;;;;;;;19.23;11.75;;;;;;;28.67;47.46;101493.25;5029265;28;20021;-46
2023/06/29 09:50:39;;;;;;;17.45;11.32;;;;;;;27.95;50.65;101489.75;5029504;28;20037;-48
2023/06/29 09:53:11;;;;;;;21.13;12.18;;;;;;;27.97;49.21;101492.38;5029734;28;20033;-53
2023/06/29 09:55:38;;;;;;;16.98;11.73;;;;;;;28.01;50.09;101492.13;5028949;28;20044;-47
2023/06/29 09:58:04;;;;;;;17.45;11.52;;;;;;;28.13;49.51;101496.03;5029113;28;20037;-50
2023/06/29 10:00:32;;;;;;;21.10;11.65;;;;;;;27.29;51.92;101497.38;5028892;28;20116;-47
2023/06/29 10:02:57;;;;;;;19.30;11.43;;;;;;;27.28;51.95;101500.97;5029864;28;20044;-48
2023/06/29 10:05:23;;;;;;;21.23;10.88;;;;;;;26.48;54.09;101505.41;5029461;28;20030;-45
2023/06/29 10:07:53;;;;;;;17.05;11.13;;;;;;;26.78;53.23;101502.34;5028612;28;20029;-47
2023/06/29 10:10:20;;;;;;;18.05;10.90;;;;;;;26.56;53.62;101505.97;5029402;28;20033;-47
2023/06/29 10:12:50;;;;;;;16.63;10.55;;;;;;;26.76;53.78;101502.44;5029003;28;20033;-46
2023/06/29 10:15:18;;;;;;;22.00;11.25;;;;;;;27.20;52.60;101496.94;5029178;28;20553;-45
2023/06/29 10:17:50;;;;;;;17.25;11.10;;;;;;;27.11;51.98;101506.22;5028476;28;20381;-48
2023/06/29 10:20:17;;;;;;;17.90;11.50;;;;;;;27.54;51.43;101493.56;5028962;28;20500;-49
2023/06/29 10:22:44;;;;;;;17.38;11.15;;;;;;;27.83;50.23;101488.56;5028484;28;20033;-47
2023/06/29 10:25:14;;;;;;;16.33;10.93;;;;;;;27.64;50.71;101497.53;5029059;28;20033;-51
2023/06/29 10:27:40;;;;;;;16.35;10.88;;;;;;;28.05;49.61;101498.25;5031546;28;20041;-49
2023/06/29 10:30:06;;;;;;;16.40;10.93;;;;;;;27.96;49.49;101490.63;5032952;28;20112;-51
2023/06/29 10:32:32;;;;;;;15.88;11.00;;;;;;;28.53;48.23;101501.16;5032893;28;20124;-50
2023/06/29 10:35:11;;;;;;;18.45;11.05;;;;;;;27.95;48.45;101496.94;5032873;28;20040;-49
2023/06/29 10:37:40;;;;;;;18.05;11.30;;;;;;;27.95;49.22;101497.81;5032127;28;20041;-45
2023/06/29 10:40:20;;;;;;;20.33;12.02;;;;;;;27.62;49.51;101508.34;5032936;28;20438;-44
2023/06/29 10:42:45;;;;;;;19.23;12.20;;;;;;;27.91;50.34;101495.34;5032372;28;20049;-45
2023/06/29 10:45:17;;;;;;;19.17;12.95;;;;;;;28.63;46.82;101498.84;5032868;28;20041;-47
2023/06/29 10:47:43;;;;;;;20.00;13.68;;;;;;;27.38;50.04;101504.97;5031979;28;20132;-46
2023/06/29 10:50:08;;;;;;;19.77;13.07;;;;;;;28.17;48.20;101498.53;5032700;28;20554;-47
2023/06/29 10:52:33;;;;;;;21.85;13.70;;;;;;;28.11;48.03;101490.75;5032588;28;20049;-45
2023/06/29 10:55:31;;;;;;;19.20;12.73;;;;;;;28.58;47.75;101487.50;5032538;28;20026;-46
2023/06/29 10:58:00;;;;;;;20.15;12.68;;;;;;;29.15;46.29;101480.03;5031730;28;20456;-49
2023/06/29 11:00:26;;;;;;;19.95;12.38;;;;;;;28.93;46.20;101491.03;5032464;28;20052;-47
2023/06/29 11:02:53;;;;;;;20.77;13.05;;;;;;;28.52;47.67;101490.50;5032150;28;20032;-47
2023/06/29 11:05:20;;;;;;;19.23;12.70;;;;;;;27.93;48.89;101496.16;5032575;28;20033;-51